Aérodrome :
LOGIN :

S'inscrire | Disclaimer

   EN    FR    IT 

 










Légende :    VFR   VFR Marginal   IFR   IFR Intensif   IFR Très Intensif
Visi : 
Plafond : 
>= 8 km
>= 3000ft
5 à 8 km
1000 à 3000 ft
1500m à 5 km
500 à 1000 ft
800 à 1500m
200 à 500 ft
< 800m
< 200 ft
Symboles :   Orages  Brouillard  Fortes neiges  Fortes précipitations  Vent > 20 kt
SIGMETs :   Divers  Orages  Givrage  Turbulence  Onde Orograph.  Cendres Volcan.







- Altitude de l'aérodrome : 659 ft
- Code IATA : LGG


EBLG - Liège

DERNIER METAR :
  • 211750Z 27004KT 9999 BKN040 11/07 Q1029 NOSIG

METARs EXPIRÉS :
  • 211720Z 26005KT 9999 BKN042 11/07 Q1028 NOSIG
  • 211650Z 26005KT 9999 BKN044 11/07 Q1028 NOSIG
  • 211620Z 26005KT 9999 BKN045 12/07 Q1028 NOSIG
  • 211550Z 27006KT CAVOK 12/07 Q1028 NOSIG
  • 211520Z 28006KT CAVOK 12/07 Q1028

TAF TAF EBLG
Valide du 21 à 18h jusqu'au 23 à 00h UTC


211709Z 2118/2224 25005KT 8000 FEW020
BECMG 2122/2124 BKN006
TEMPO 2200/2217 3000 BR BKN003
PROB40
TEMPO 2202/2210 0200 FG BKN001
BECMG 2217/2219 BKN012
Pas de NOTAMs connus pour ce terrain.



MET'MAP, la Météo Aéronautique d'un coup d'oeil ! - Copyright ORBIFLY Décembre 2007 - Disclaimer

ORBIFLY MET'MAP TEAM :

Programmation & Développement : Alexandra Zaïnal
Conception & Développement : Baudouin d'Aumeries
Co-Programmation & Développement : Marc-Olivier Méhu
Soutien technique & logistique : Manuel Goepfert

Contact : metmap@orbifly.com




SOURCES & CREDITS :

   NOAA